Terminal Aerodrome Forecast
Issued by NWS

Home | Current Version | Previous Version | Text Only | Print | Product List | Glossary On
Versions: 1 2 3 4 5 6 7 8 9 10 11 12 13 14 15 16 17 18 19 20 21 22 23 24 25
000
FTUS43 KLSX 051907 AAA
TAFSUS
TAF AMD
KSUS 051907Z 0519/0618 VRB04KT P6SM SCT014 BKN250
      TEMPO 0519/0523 BKN014
     FM060600 VRB04KT 3SM BR VCSH OVC015
     FM061200 31005KT 3SM BR OVC015=

USA.gov is the U.S. government's official web portal to all federal, state and local government web resources and services.